createdAt,value
2023-04-29T00:01:21.008Z,37.00
2023-04-29T00:03:49.828Z,37.20
2023-04-29T00:06:18.285Z,36.90
2023-04-29T00:08:46.550Z,36.57
2023-04-29T00:11:14.745Z,36.93
2023-04-29T00:13:43.083Z,37.17
2023-04-29T00:16:11.236Z,37.37
2023-04-29T00:18:40.765Z,36.70
2023-04-29T00:21:08.873Z,36.80
2023-04-29T00:23:36.906Z,36.30
2023-04-29T00:26:04.842Z,36.50
2023-04-29T00:28:33.460Z,36.53
2023-04-29T00:31:01.418Z,36.70
2023-04-29T00:33:29.477Z,36.93
2023-04-29T00:35:58.952Z,36.50
2023-04-29T00:38:26.933Z,37.70
2023-04-29T00:40:55.060Z,36.03
2023-04-29T00:43:23.145Z,39.73
2023-04-29T00:45:51.483Z,36.37
2023-04-29T00:48:20.004Z,36.20
2023-04-29T00:50:48.362Z,36.03
2023-04-29T00:53:17.967Z,36.30
2023-04-29T00:55:48.510Z,36.67
2023-04-29T00:58:17.643Z,36.43
2023-04-29T01:00:46.893Z,36.00
2023-04-29T01:03:15.789Z,36.00
2023-04-29T01:05:49.126Z,38.30
2023-04-29T01:08:29.001Z,35.63
2023-04-29T01:11:07.455Z,36.00
2023-04-29T01:13:43.782Z,36.00
2023-04-29T01:16:18.900Z,37.00
2023-04-29T01:18:51.243Z,35.60
2023-04-29T01:21:19.395Z,36.20
2023-04-29T01:23:53.857Z,36.27
2023-04-29T01:26:22.127Z,38.70
2023-04-29T01:28:59.671Z,37.80
2023-04-29T01:31:32.885Z,36.07
2023-04-29T01:34:10.148Z,35.73
2023-04-29T01:36:48.812Z,35.87
2023-04-29T01:39:26.495Z,36.60
2023-04-29T01:41:59.851Z,35.93
2023-04-29T01:44:31.716Z,35.43
2023-04-29T01:47:02.283Z,36.03
2023-04-29T01:49:31.149Z,36.90
2023-04-29T01:51:59.248Z,36.80
2023-04-29T01:54:28.729Z,38.87
2023-04-29T01:56:57.378Z,37.00
2023-04-29T01:59:25.455Z,37.13
2023-04-29T02:01:53.584Z,38.10
2023-04-29T02:04:21.888Z,36.50
2023-04-29T02:06:49.823Z,35.80
2023-04-29T02:09:18.170Z,35.60
2023-04-29T02:11:47.614Z,35.67
2023-04-29T02:14:15.716Z,36.00
2023-04-29T02:16:45.775Z,35.60
2023-04-29T02:19:14.069Z,36.07
2023-04-29T02:21:42.166Z,36.23
2023-04-29T02:24:10.054Z,38.77
2023-04-29T02:26:38.479Z,37.60
2023-04-29T02:29:08.334Z,36.10
2023-04-29T02:31:36.400Z,37.80
2023-04-29T02:34:04.752Z,36.80
2023-04-29T02:36:32.840Z,38.90
2023-04-29T02:39:00.729Z,38.70
2023-04-29T02:41:29.134Z,38.40
2023-04-29T02:43:57.028Z,37.83
2023-04-29T02:46:26.547Z,38.33
2023-04-29T02:48:54.524Z,37.67
2023-04-29T02:51:22.445Z,35.90
2023-04-29T02:53:50.419Z,35.57
2023-04-29T02:56:18.374Z,36.57
2023-04-29T02:58:46.421Z,39.10
2023-04-29T03:01:14.339Z,38.73
2023-04-29T03:03:43.768Z,39.20
2023-04-29T03:06:11.900Z,38.10
2023-04-29T03:08:39.972Z,36.30
2023-04-29T03:11:08.059Z,38.93
2023-04-29T03:13:35.919Z,37.00
2023-04-29T03:16:04.048Z,37.20
2023-04-29T03:18:32.477Z,39.27
2023-04-29T03:21:02.520Z,40.10
2023-04-29T03:23:30.694Z,36.20
2023-04-29T03:25:58.971Z,37.77
2023-04-29T03:28:27.252Z,36.93
2023-04-29T03:30:56.957Z,39.53
2023-04-29T03:33:24.936Z,40.10
2023-04-29T03:35:53.116Z,38.37
2023-04-29T03:38:22.386Z,37.30
2023-04-29T03:40:50.651Z,38.60
2023-04-29T03:43:18.722Z,37.27
2023-04-29T03:45:46.959Z,36.73
2023-04-29T03:48:14.960Z,39.10
2023-04-29T03:50:42.882Z,39.20
2023-04-29T03:53:10.865Z,38.73
2023-04-29T03:55:40.369Z,39.97
2023-04-29T03:58:08.295Z,38.97
2023-04-29T04:00:36.443Z,39.00
2023-04-29T04:03:06.077Z,39.00
2023-04-29T04:05:34.178Z,37.47
2023-04-29T04:08:02.356Z,37.73
2023-04-29T04:10:30.632Z,38.33
2023-04-29T04:12:59.998Z,38.20
2023-04-29T04:15:28.351Z,36.33
2023-04-29T04:17:56.256Z,39.27
2023-04-29T04:20:24.307Z,36.00
2023-04-29T04:22:52.237Z,37.60
2023-04-29T04:25:20.592Z,38.70
2023-04-29T04:27:48.490Z,37.17
2023-04-29T04:30:17.831Z,37.37
2023-04-29T04:32:46.659Z,37.75
2023-04-29T04:35:14.857Z,36.77
2023-04-29T04:37:42.931Z,35.60
2023-04-29T04:40:12.296Z,37.80
2023-04-29T04:42:40.620Z,39.58
2023-04-29T04:45:11.389Z,38.57
2023-04-29T04:47:42.334Z,36.77
2023-04-29T04:50:11.142Z,38.67
2023-04-29T04:52:39.106Z,37.20
2023-04-29T04:55:07.829Z,37.60
2023-04-29T04:57:35.785Z,35.80
2023-04-29T05:00:05.208Z,35.60
2023-04-29T05:02:33.229Z,35.43
2023-04-29T05:05:02.756Z,35.40
2023-04-29T05:07:30.829Z,35.80
2023-04-29T05:09:59.250Z,38.80
2023-04-29T05:12:30.659Z,39.50
2023-04-29T05:14:58.739Z,40.47
2023-04-29T05:17:26.780Z,40.67
2023-04-29T05:19:54.867Z,41.03
2023-04-29T05:22:24.259Z,41.00
2023-04-29T05:24:54.106Z,45.00
2023-04-29T05:27:22.846Z,35.10
2023-04-29T05:29:50.988Z,35.60
2023-04-29T05:32:19.113Z,35.50
2023-04-29T05:34:49.012Z,35.77
2023-04-29T05:37:17.138Z,35.73
2023-04-29T05:39:46.743Z,36.30
2023-04-29T05:42:14.844Z,35.50
2023-04-29T05:44:42.972Z,35.50
2023-04-29T05:47:11.345Z,35.70
2023-04-29T05:49:43.847Z,37.60
2023-04-29T05:52:12.076Z,35.73
2023-04-29T05:54:40.437Z,36.17
2023-04-29T05:57:09.857Z,37.23
2023-04-29T05:59:40.703Z,37.03
2023-04-29T06:02:08.764Z,36.30
2023-04-29T06:04:38.361Z,35.77
2023-04-29T06:09:49.158Z,36.37
2023-04-29T06:12:18.506Z,35.83
2023-04-29T06:14:48.890Z,36.37
2023-04-29T06:17:16.779Z,36.20
2023-04-29T06:19:44.581Z,37.73
2023-04-29T06:22:12.451Z,36.97
2023-04-29T06:24:40.267Z,36.83
2023-04-29T06:27:08.237Z,35.90
2023-04-29T06:29:37.501Z,39.60
2023-04-29T06:32:05.704Z,36.70
2023-04-29T06:34:33.821Z,36.50
2023-04-29T06:37:01.682Z,36.50
2023-04-29T06:39:29.519Z,37.70
2023-04-29T06:41:58.803Z,36.83
2023-04-29T06:44:27.546Z,36.90
2023-04-29T06:46:56.843Z,36.90
2023-04-29T06:49:24.959Z,37.20
2023-04-29T06:51:53.254Z,37.20
2023-04-29T06:54:21.339Z,37.50
2023-04-29T06:56:49.194Z,37.70
2023-04-29T06:59:17.147Z,38.60
2023-04-29T07:01:46.066Z,37.53
2023-04-29T07:04:16.567Z,39.23
2023-04-29T07:06:46.925Z,38.13
2023-04-29T07:09:15.472Z,37.67
2023-04-29T07:11:43.343Z,37.50
2023-04-29T07:14:11.185Z,39.03
2023-04-29T07:16:39.029Z,37.70
2023-04-29T07:19:07.124Z,37.93
2023-04-29T07:21:36.394Z,38.17
2023-04-29T07:24:04.966Z,39.10
2023-04-29T07:26:33.158Z,39.73
2023-04-29T07:29:00.969Z,38.40
2023-04-29T07:31:29.888Z,38.23
2023-04-29T07:33:58.141Z,38.20
2023-04-29T07:36:25.990Z,38.63
2023-04-29T07:38:55.145Z,38.27
2023-04-29T07:41:22.956Z,39.50
2023-04-29T07:43:50.808Z,39.00
2023-04-29T07:46:18.752Z,39.07
2023-04-29T07:48:46.611Z,39.07
2023-04-29T07:51:15.197Z,38.70
2023-04-29T07:53:44.720Z,39.80
2023-04-29T07:56:16.258Z,39.07
2023-04-29T07:58:44.988Z,39.07
2023-04-29T08:01:13.353Z,38.67
2023-04-29T08:03:43.648Z,39.00
2023-04-29T08:06:12.173Z,38.80
2023-04-29T08:08:40.378Z,39.50
2023-04-29T08:11:08.280Z,39.20
2023-04-29T08:13:38.528Z,39.77
2023-04-29T08:16:06.927Z,39.53
2023-04-29T08:18:34.746Z,40.00
2023-04-29T08:21:02.557Z,40.93
2023-04-29T08:23:30.520Z,40.50
2023-04-29T08:25:58.391Z,39.90
2023-04-29T08:28:26.262Z,39.80
2023-04-29T08:30:55.453Z,40.20
2023-04-29T08:33:23.348Z,40.00
2023-04-29T08:35:58.284Z,40.17
2023-04-29T08:38:26.362Z,40.60
2023-04-29T08:40:54.453Z,40.20
2023-04-29T08:43:22.790Z,41.10
2023-04-29T08:45:51.254Z,41.47
2023-04-29T08:48:27.937Z,40.63
2023-04-29T08:50:58.335Z,41.07
2023-04-29T08:53:28.641Z,41.30
2023-04-29T08:56:02.339Z,40.67
2023-04-29T08:58:38.588Z,41.57
2023-04-29T09:01:23.464Z,40.93
2023-04-29T09:04:02.420Z,41.37
2023-04-29T09:06:35.643Z,42.73
2023-04-29T09:09:06.583Z,41.50
2023-04-29T09:11:36.204Z,41.80
2023-04-29T09:14:05.068Z,42.10
2023-04-29T09:16:33.332Z,41.80
2023-04-29T09:19:04.513Z,41.90
2023-04-29T09:21:33.137Z,41.90
2023-04-29T09:24:09.705Z,42.20
2023-04-29T09:26:51.756Z,42.00
2023-04-29T09:29:19.979Z,43.00
2023-04-29T09:31:48.688Z,42.80
2023-04-29T09:34:17.944Z,42.73
2023-04-29T09:36:47.550Z,43.53
2023-04-29T09:39:17.457Z,43.37
2023-04-29T09:42:00.164Z,43.20
2023-04-29T09:44:33.657Z,43.07
2023-04-29T09:47:03.894Z,43.00
2023-04-29T09:49:35.674Z,43.50
2023-04-29T09:52:05.236Z,42.90
2023-04-29T09:54:34.548Z,44.00
2023-04-29T09:57:05.861Z,43.03
2023-04-29T09:59:36.005Z,46.10
2023-04-29T10:02:09.217Z,43.00
2023-04-29T10:04:42.637Z,43.50
2023-04-29T10:07:14.857Z,43.00
2023-04-29T10:09:42.904Z,43.83
2023-04-29T10:12:11.223Z,42.57
2023-04-29T10:14:44.994Z,42.73
2023-04-29T10:17:20.475Z,42.80
2023-04-29T10:19:58.548Z,43.70
2023-04-29T10:22:32.907Z,43.40
2023-04-29T10:25:02.864Z,43.60
2023-04-29T10:27:32.477Z,43.30
2023-04-29T10:30:02.370Z,43.30
2023-04-29T14:32:07.343Z,45.53
2023-04-29T14:34:35.237Z,43.60
2023-04-29T14:37:03.071Z,43.50
2023-04-29T14:39:30.903Z,44.50
2023-04-29T14:41:58.743Z,43.23
2023-04-29T14:44:27.867Z,44.23
2023-04-29T14:46:56.096Z,44.13
2023-04-29T14:49:24.209Z,44.07
2023-04-29T14:51:52.034Z,43.40
2023-04-29T14:54:19.829Z,44.70
2023-04-29T14:56:47.679Z,43.67
2023-04-29T14:59:16.683Z,42.80
2023-04-29T15:01:46.058Z,42.83
2023-04-29T15:04:14.442Z,43.70
2023-04-29T15:06:42.464Z,42.80
2023-04-29T15:09:10.344Z,43.17
2023-04-29T15:11:38.423Z,43.30
2023-04-29T15:14:06.872Z,44.80
2023-04-29T15:16:36.440Z,44.57
2023-04-29T15:19:05.769Z,43.03
2023-04-29T15:21:33.810Z,43.43
2023-04-29T15:24:02.131Z,43.67
2023-04-29T15:26:29.997Z,44.57
2023-04-29T15:28:57.851Z,43.80
2023-04-29T15:31:27.867Z,44.40
2023-04-29T15:33:56.544Z,44.10
2023-04-29T15:36:30.832Z,43.23
2023-04-29T15:38:58.693Z,44.00
2023-04-29T15:41:26.986Z,43.97
2023-04-29T15:43:54.963Z,43.80
2023-04-29T15:46:23.136Z,44.47
2023-04-29T15:48:51.360Z,43.57
2023-04-29T15:51:19.302Z,43.60
2023-04-29T15:53:49.025Z,43.90
2023-04-29T15:56:16.900Z,43.30
2023-04-29T15:58:44.984Z,43.30
2023-04-29T16:01:12.918Z,43.07
2023-04-29T16:03:40.896Z,43.00
2023-04-29T16:06:09.118Z,44.27
2023-04-29T16:08:37.054Z,43.43
2023-04-29T16:11:06.314Z,43.00
2023-04-29T16:13:36.261Z,43.30
2023-04-29T16:16:04.586Z,43.50
2023-04-29T16:18:33.631Z,43.10
2023-04-29T16:21:02.619Z,44.20
2023-04-29T16:23:30.573Z,45.23
2023-04-29T16:25:58.602Z,44.83
2023-04-29T16:28:27.840Z,44.50
2023-04-29T16:30:55.690Z,45.30
2023-04-29T16:33:23.797Z,45.50
2023-04-29T16:35:51.633Z,45.10
2023-04-29T16:38:19.589Z,44.30
2023-04-29T16:40:49.401Z,45.30
2023-04-29T16:43:19.085Z,45.00
2023-04-29T16:45:48.480Z,45.30
2023-04-29T16:48:16.654Z,44.50
2023-04-29T16:50:44.652Z,44.60
2023-04-29T16:53:13.439Z,44.27
2023-04-29T16:55:41.313Z,44.80
2023-04-29T16:58:09.240Z,44.17
2023-04-29T17:00:37.081Z,44.70
2023-04-29T17:03:06.819Z,45.10
2023-04-29T17:05:35.010Z,44.77
2023-04-29T17:08:03.263Z,45.10
2023-04-29T17:10:31.130Z,45.30
2023-04-29T17:12:59.372Z,45.30
2023-04-29T17:15:27.391Z,46.90
2023-04-29T17:17:55.779Z,45.53
2023-04-29T17:20:25.067Z,45.10
2023-04-29T17:22:53.086Z,45.60
2023-04-29T17:25:22.432Z,45.90
2023-04-29T17:27:50.260Z,45.30
2023-04-29T17:30:18.068Z,45.50
2023-04-29T17:32:46.748Z,46.40
2023-04-29T17:35:14.667Z,44.90
2023-04-29T17:37:43.847Z,44.90
2023-04-29T17:40:12.246Z,44.60
2023-04-29T17:42:40.488Z,44.43
2023-04-29T17:45:09.620Z,45.00
2023-04-29T17:47:37.705Z,44.43
2023-04-29T17:50:06.138Z,44.60
2023-04-29T17:52:33.937Z,44.20
2023-04-29T17:55:03.589Z,45.33
2023-04-29T17:57:31.483Z,43.90
2023-04-29T17:59:59.605Z,43.30
2023-04-29T18:02:27.490Z,43.23
2023-04-29T18:04:55.806Z,42.20
2023-04-29T18:07:23.653Z,42.23
2023-04-29T18:09:51.672Z,43.90
2023-04-29T18:12:21.052Z,42.70
2023-04-29T18:14:48.960Z,42.30
2023-04-29T18:17:16.827Z,43.37
2023-04-29T18:19:47.789Z,43.00
2023-04-29T18:22:15.669Z,41.70
2023-04-29T18:24:43.892Z,41.80
2023-04-29T18:27:11.867Z,42.00
2023-04-29T18:29:41.187Z,42.10
2023-04-29T18:32:09.138Z,41.30
2023-04-29T18:34:37.022Z,41.70
2023-04-29T18:37:05.040Z,41.77
2023-04-29T18:39:32.898Z,41.93
2023-04-29T18:42:00.825Z,41.80
2023-04-29T18:44:28.906Z,41.83
2023-04-29T18:46:58.978Z,42.30
2023-04-29T18:49:26.760Z,42.27
2023-04-29T18:51:54.736Z,41.20
2023-04-29T18:54:22.748Z,41.60
2023-04-29T18:56:51.309Z,41.10
2023-04-29T18:59:19.987Z,41.97
2023-04-29T19:01:49.112Z,41.13
2023-04-29T19:04:18.446Z,41.10
2023-04-29T19:06:46.508Z,41.40
2023-04-29T19:09:14.441Z,41.53
2023-04-29T19:11:42.285Z,41.10
2023-04-29T19:14:10.169Z,41.50
2023-04-29T19:16:38.290Z,40.70
2023-04-29T19:19:06.608Z,41.20
2023-04-29T19:21:36.528Z,40.83
2023-04-29T19:24:04.581Z,42.03
2023-04-29T19:26:34.985Z,41.10
2023-04-29T19:29:04.594Z,40.60
2023-04-29T19:31:32.528Z,40.07
2023-04-29T19:34:00.834Z,40.60
2023-04-29T19:36:28.788Z,40.10
2023-04-29T19:38:58.257Z,40.60
2023-04-29T19:41:26.166Z,40.60
2023-04-29T19:43:53.994Z,40.40
2023-04-29T19:46:22.317Z,39.57
2023-04-29T19:48:50.172Z,40.50
2023-04-29T19:51:18.225Z,39.70
2023-04-29T19:53:46.300Z,39.80
2023-04-29T19:56:15.879Z,39.60
2023-04-29T19:58:43.689Z,40.20
2023-04-29T20:01:11.596Z,39.60
2023-04-29T20:03:39.744Z,39.10
2023-04-29T20:06:08.700Z,39.70
2023-04-29T20:08:36.963Z,40.50
2023-04-29T20:11:05.150Z,40.03
2023-04-29T20:13:34.537Z,38.90
2023-04-29T20:16:02.467Z,40.03
2023-04-29T20:18:30.345Z,39.30
2023-04-29T20:20:58.213Z,39.03
2023-04-29T20:23:26.174Z,40.13
2023-04-29T20:25:54.165Z,39.40
2023-04-29T20:28:22.321Z,38.73
2023-04-29T20:30:52.043Z,39.03
2023-04-29T20:33:19.911Z,38.60
2023-04-29T20:35:47.841Z,38.90
2023-04-29T20:38:15.848Z,38.73
2023-04-29T20:40:43.836Z,38.60
2023-04-29T20:43:11.956Z,39.07
2023-04-29T20:45:40.026Z,38.40
2023-04-29T20:48:09.484Z,38.70
2023-04-29T20:50:37.362Z,38.37
2023-04-29T20:53:05.530Z,37.70
2023-04-29T20:55:33.385Z,37.80
2023-04-29T20:58:01.382Z,38.70
2023-04-29T21:00:29.185Z,42.97
2023-04-29T21:02:57.104Z,40.87
2023-04-29T21:05:26.924Z,41.43
2023-04-29T21:07:54.750Z,40.53
2023-04-29T21:10:22.851Z,41.37
2023-04-29T21:12:50.877Z,40.30
2023-04-29T21:15:18.868Z,40.37
2023-04-29T21:17:46.724Z,40.37
2023-04-29T21:20:16.975Z,41.90
2023-04-29T21:22:46.175Z,40.40
2023-04-29T21:25:14.116Z,41.40
2023-04-29T21:27:42.043Z,40.13
2023-04-29T21:30:10.743Z,40.63
2023-04-29T21:32:38.634Z,40.53
2023-04-29T21:35:07.633Z,40.07
2023-04-29T21:37:35.499Z,39.67
2023-04-29T21:40:05.087Z,40.20
2023-04-29T21:42:34.809Z,40.30
2023-04-29T21:45:03.110Z,40.60
2023-04-29T21:47:31.647Z,40.40
2023-04-29T21:50:00.461Z,40.50
2023-04-29T21:52:28.436Z,40.73
2023-04-29T21:54:56.321Z,40.93
2023-04-29T21:57:39.696Z,41.27
2023-04-29T22:00:27.689Z,40.53
2023-04-29T22:02:55.560Z,40.73
2023-04-29T22:05:23.552Z,40.47
2023-04-29T22:07:51.377Z,41.50
2023-04-29T22:10:19.208Z,41.53
2023-04-29T22:12:48.451Z,40.20
2023-04-29T22:15:27.395Z,40.67
2023-04-29T22:17:57.501Z,40.43
2023-04-29T22:20:25.956Z,40.77
2023-04-29T22:22:54.257Z,40.40
2023-04-29T22:25:22.301Z,39.33
2023-04-29T22:27:51.827Z,41.07
2023-04-29T22:30:20.582Z,41.40
2023-04-29T22:32:48.573Z,41.43
2023-04-29T22:35:16.935Z,41.07
2023-04-29T22:37:44.773Z,40.03
2023-04-29T22:40:14.085Z,40.47
2023-04-29T22:42:42.835Z,40.10
2023-04-29T22:45:13.069Z,40.10
2023-04-29T22:47:40.980Z,40.27
2023-04-29T22:50:10.077Z,40.10
2023-04-29T22:52:37.981Z,39.57
2023-04-29T22:55:06.961Z,40.20
2023-04-29T22:57:34.807Z,39.67
2023-04-29T23:00:03.695Z,39.73
2023-04-29T23:02:32.928Z,40.23
2023-04-29T23:05:01.257Z,40.00
2023-04-29T23:07:29.128Z,40.73
2023-04-29T23:09:57.149Z,40.63
2023-04-29T23:12:25.633Z,38.80
2023-04-29T23:14:53.814Z,41.77
2023-04-29T23:17:22.104Z,40.10
2023-04-29T23:19:51.747Z,40.83
2023-04-29T23:22:19.896Z,41.40
2023-04-29T23:24:47.783Z,41.23
2023-04-29T23:27:16.195Z,40.90
2023-04-29T23:29:44.114Z,41.03
2023-04-29T23:32:12.035Z,40.27
2023-04-29T23:34:40.248Z,40.20
2023-04-29T23:37:09.544Z,39.80
2023-04-29T23:39:37.526Z,41.30
2023-04-29T23:42:05.822Z,39.23
2023-04-29T23:44:34.201Z,39.43
2023-04-29T23:47:02.261Z,39.90
2023-04-29T23:49:30.171Z,40.50
2023-04-29T23:51:58.391Z,39.80
2023-04-29T23:54:28.334Z,39.37
2023-04-29T23:56:56.367Z,39.03
2023-04-29T23:59:24.474Z,39.50
